Terminal Aerodrome Forecast
Issued by NWS Bismarck, ND

Home | Current Version | Previous Version | Text Only | Print | Product List | Glossary Off
Versions: 1 2 3 4 5 6 7 8 9 10 11 12 13 14 15 16

000
FTUS43 KBIS 030126 AAA
TAFBIS
TAF AMD
KBIS 030126Z 0301/0324 34005KT P6SM SCT120 BKN150
     FM030800 34013G18KT P6SM BKN110
     FM031600 33015G20KT P6SM SCT150=

USA.gov is the U.S. government's official web portal to all federal, state and local government web resources and services.